createdAt,value
2019-03-18T00:00:27.712Z,99.90
2019-03-18T00:02:56.130Z,99.90
2019-03-18T00:05:24.575Z,99.90
2019-03-18T00:07:52.996Z,99.90
2019-03-18T00:10:21.680Z,99.90
2019-03-18T00:12:52.120Z,99.90
2019-03-18T00:15:20.311Z,99.90
2019-03-18T00:17:49.066Z,99.90
2019-03-18T00:20:17.481Z,99.90
2019-03-18T00:22:45.929Z,99.90
2019-03-18T00:25:15.485Z,99.90
2019-03-18T00:27:43.973Z,99.90
2019-03-18T00:30:17.140Z,99.90
2019-03-18T00:32:45.566Z,99.90
2019-03-18T00:35:14.269Z,99.90
2019-03-18T00:37:42.963Z,99.90
2019-03-18T00:40:13.736Z,99.90
2019-03-18T00:42:42.489Z,99.90
2019-03-18T00:45:15.088Z,99.90
2019-03-18T00:47:41.245Z,99.90
2019-03-18T00:50:12.539Z,99.90
2019-03-18T00:52:40.991Z,99.90
2019-03-18T00:55:09.681Z,99.90
2019-03-18T00:57:38.116Z,99.90
2019-03-18T01:00:14.190Z,99.90
2019-03-18T01:02:42.931Z,99.90
2019-03-18T01:05:11.835Z,99.90
2019-03-18T01:07:40.320Z,99.90
2019-03-18T01:10:16.871Z,99.90
2019-03-18T01:12:45.309Z,99.90
2019-03-18T01:15:26.893Z,99.90
2019-03-18T01:17:44.166Z,99.90
2019-03-18T01:20:14.625Z,99.90
2019-03-18T01:22:43.066Z,99.90
2019-03-18T01:25:11.817Z,99.90
2019-03-18T01:27:40.614Z,99.90
2019-03-18T01:30:13.961Z,99.90
2019-03-18T01:32:42.400Z,99.90
2019-03-18T01:35:11.078Z,99.90
2019-03-18T01:37:40.003Z,99.90
2019-03-18T01:40:12.815Z,99.90
2019-03-18T01:42:41.415Z,99.90
2019-03-18T01:45:10.973Z,99.90
2019-03-18T01:47:39.765Z,99.90
2019-03-18T01:50:14.127Z,99.90
2019-03-18T01:52:42.646Z,99.90
2019-03-18T01:55:11.176Z,99.90
2019-03-18T01:57:39.765Z,99.90
2019-03-18T02:00:15.303Z,99.90
2019-03-18T02:02:44.067Z,99.90
2019-03-18T02:05:12.751Z,99.90
2019-03-18T02:07:41.170Z,99.90
2019-03-18T02:10:13.704Z,99.90
2019-03-18T02:12:42.408Z,99.90
2019-03-18T02:15:12.475Z,99.90
2019-03-18T02:17:40.934Z,99.90
2019-03-18T02:20:11.796Z,99.90
2019-03-18T02:22:40.218Z,99.90
2019-03-18T02:25:10.085Z,99.90
2019-03-18T02:27:38.920Z,99.90
2019-03-18T02:30:10.471Z,99.90
2019-03-18T02:32:39.260Z,99.90
2019-03-18T02:35:07.859Z,99.90
2019-03-18T02:37:36.298Z,99.90
2019-03-18T02:40:07.150Z,99.90
2019-03-18T02:42:35.649Z,99.90
2019-03-18T02:45:05.912Z,99.90
2019-03-18T02:47:34.352Z,99.90
2019-03-18T02:50:02.778Z,99.90
2019-03-18T02:52:31.244Z,99.90
2019-03-18T02:54:59.672Z,99.90
2019-03-18T02:57:28.382Z,99.90
2019-03-18T02:59:56.818Z,99.90
2019-03-18T03:02:25.549Z,99.90
2019-03-18T03:04:54.337Z,99.90
2019-03-18T03:07:22.846Z,99.90
2019-03-18T03:09:51.304Z,99.90
2019-03-18T03:12:19.748Z,99.90
2019-03-18T03:14:48.224Z,99.90
2019-03-18T03:17:21.281Z,99.90
2019-03-18T03:19:47.372Z,99.90
2019-03-18T03:22:15.804Z,99.90
2019-03-18T03:24:44.325Z,99.90
2019-03-18T03:27:12.836Z,99.90
2019-03-18T03:29:41.603Z,99.90
2019-03-18T03:32:10.032Z,99.90
2019-03-18T03:34:38.474Z,99.90
2019-03-18T03:37:06.885Z,99.90
2019-03-18T03:39:35.359Z,99.90
2019-03-18T03:42:04.246Z,99.90
2019-03-18T03:44:32.993Z,99.90
2019-03-18T03:47:01.690Z,99.90
2019-03-18T03:49:30.324Z,99.90
2019-03-18T03:51:59.049Z,99.90
2019-03-18T03:54:27.467Z,99.90
2019-03-18T03:56:56.041Z,99.90
2019-03-18T03:59:25.219Z,99.90
2019-03-18T04:01:53.815Z,99.90
2019-03-18T04:04:22.243Z,99.90
2019-03-18T04:06:50.706Z,99.90
2019-03-18T04:09:19.222Z,99.90
2019-03-18T04:11:47.729Z,99.90
2019-03-18T04:14:16.160Z,99.90
2019-03-18T04:17:00.560Z,99.90
2019-03-18T04:19:15.133Z,99.90
2019-03-18T04:21:43.628Z,99.90
2019-03-18T04:24:12.057Z,99.90
2019-03-18T04:26:40.499Z,99.90
2019-03-18T04:29:08.960Z,99.90
2019-03-18T04:31:37.658Z,99.90
2019-03-18T04:34:06.421Z,99.90
2019-03-18T04:36:35.041Z,99.90
2019-03-18T04:39:04.620Z,99.90
2019-03-18T04:41:33.127Z,99.90
2019-03-18T04:44:01.554Z,99.90
2019-03-18T04:46:29.964Z,99.90
2019-03-18T04:48:58.388Z,99.90
2019-03-18T04:51:26.837Z,99.90
2019-03-18T04:53:55.267Z,99.90
2019-03-18T04:56:23.710Z,99.90
2019-03-18T04:58:52.480Z,99.90
2019-03-18T05:01:20.920Z,99.90
2019-03-18T05:03:49.355Z,99.90
2019-03-18T05:06:17.764Z,99.90
2019-03-18T05:08:46.189Z,99.90
2019-03-18T05:11:14.636Z,99.90
2019-03-18T05:13:43.083Z,99.90
2019-03-18T05:16:11.935Z,99.90
2019-03-18T05:18:40.340Z,99.90
2019-03-18T05:21:08.767Z,99.90
2019-03-18T05:23:37.468Z,99.90
2019-03-18T05:26:06.082Z,99.90
2019-03-18T05:28:34.841Z,99.90
2019-03-18T05:31:03.658Z,99.90
2019-03-18T05:33:32.085Z,99.90
2019-03-18T05:36:00.521Z,99.90
2019-03-18T05:38:28.964Z,99.90
2019-03-18T05:40:57.368Z,99.90
2019-03-18T05:43:26.150Z,99.90
2019-03-18T05:45:54.945Z,99.90
2019-03-18T05:48:23.354Z,99.90
2019-03-18T05:50:51.796Z,99.90
2019-03-18T05:53:20.285Z,99.90
2019-03-18T05:55:48.699Z,99.90
2019-03-18T05:58:17.131Z,99.90
2019-03-18T06:00:45.576Z,99.90
2019-03-18T06:03:14.539Z,99.90
2019-03-18T06:05:42.962Z,99.90
2019-03-18T06:08:11.799Z,99.90
2019-03-18T06:10:40.456Z,99.90
2019-03-18T06:13:08.887Z,99.90
2019-03-18T06:15:37.325Z,99.90
2019-03-18T06:18:05.936Z,99.90
2019-03-18T06:20:34.357Z,99.90
2019-03-18T06:23:02.782Z,99.90
2019-03-18T06:25:31.205Z,99.90
2019-03-18T06:27:59.633Z,99.90
2019-03-18T06:30:28.427Z,99.90
2019-03-18T06:32:56.843Z,99.90
2019-03-18T06:35:25.279Z,99.90
2019-03-18T06:37:53.702Z,99.90
2019-03-18T06:40:22.466Z,99.90
2019-03-18T06:42:50.883Z,99.90
2019-03-18T06:45:19.305Z,99.90
2019-03-18T06:47:47.880Z,99.90
2019-03-18T06:50:16.288Z,99.90
2019-03-18T06:52:44.716Z,99.90
2019-03-18T06:55:13.538Z,99.90
2019-03-18T06:57:42.017Z,99.90
2019-03-18T07:00:12.776Z,99.90
2019-03-18T07:02:41.407Z,99.90
2019-03-18T07:05:10.433Z,99.90
2019-03-18T07:07:38.870Z,99.90
2019-03-18T07:10:10.232Z,99.90
2019-03-18T07:12:38.975Z,99.90
2019-03-18T07:15:08.000Z,99.90
2019-03-18T07:17:36.475Z,99.90
2019-03-18T07:20:13.660Z,99.90
2019-03-18T07:22:42.141Z,99.90
2019-03-18T07:25:10.668Z,99.90
2019-03-18T07:27:39.081Z,99.90
2019-03-18T07:30:13.161Z,99.90
2019-03-18T07:32:41.571Z,99.90
2019-03-18T07:35:10.062Z,99.90
2019-03-18T07:37:38.507Z,99.90
2019-03-18T07:40:12.661Z,99.90
2019-03-18T07:42:41.083Z,99.90
2019-03-18T07:45:10.843Z,99.90
2019-03-18T07:47:39.283Z,99.90
2019-03-18T07:50:09.982Z,99.90
2019-03-18T07:52:38.493Z,99.90
2019-03-18T07:55:08.257Z,99.90
2019-03-18T07:57:36.678Z,99.90
2019-03-18T08:00:13.130Z,99.90
2019-03-18T08:02:41.975Z,99.90
2019-03-18T08:05:11.218Z,99.90
2019-03-18T08:07:39.644Z,99.90
2019-03-18T08:10:12.959Z,99.90
2019-03-18T08:12:41.390Z,99.90
2019-03-18T08:15:11.149Z,99.90
2019-03-18T08:17:39.568Z,99.90
2019-03-18T08:20:12.897Z,99.90
2019-03-18T08:22:41.390Z,99.90
2019-03-18T08:25:10.670Z,99.90
2019-03-18T08:27:39.107Z,99.90
2019-03-18T08:30:18.939Z,99.90
2019-03-18T08:32:47.540Z,99.90
2019-03-18T08:35:16.288Z,99.90
2019-03-18T08:37:45.095Z,99.90
2019-03-18T08:40:13.547Z,99.90
2019-03-18T08:42:42.096Z,99.90
2019-03-18T08:45:13.186Z,99.90
2019-03-18T08:47:41.765Z,99.90
2019-03-18T08:50:12.392Z,99.90
2019-03-18T08:52:41.220Z,99.90
2019-03-18T08:55:10.572Z,99.90
2019-03-18T08:57:39.284Z,99.90
2019-03-18T09:00:13.803Z,99.90
2019-03-18T09:02:42.699Z,99.90
2019-03-18T09:05:11.349Z,99.90
2019-03-18T09:07:39.782Z,99.90
2019-03-18T09:10:15.356Z,99.90
2019-03-18T09:12:44.212Z,99.90
2019-03-18T09:15:13.183Z,99.90
2019-03-18T09:17:41.875Z,99.90
2019-03-18T09:20:12.683Z,99.90
2019-03-18T09:22:41.143Z,99.90
2019-03-18T09:25:10.789Z,99.90
2019-03-18T09:27:39.215Z,99.90
2019-03-18T09:30:11.035Z,99.90
2019-03-18T09:32:39.598Z,99.90
2019-03-18T09:35:08.022Z,99.90
2019-03-18T09:37:36.447Z,99.90
2019-03-18T09:40:08.313Z,99.90
2019-03-18T09:42:36.752Z,99.90
2019-03-18T09:45:08.491Z,99.90
2019-03-18T09:47:37.285Z,99.90
2019-03-18T09:50:07.337Z,99.90
2019-03-18T09:52:36.085Z,99.90
2019-03-18T09:55:10.095Z,99.90
2019-03-18T09:57:38.895Z,99.90
2019-03-18T10:00:19.339Z,99.90
2019-03-18T10:02:48.120Z,99.90
2019-03-18T10:05:16.628Z,99.90
2019-03-18T10:07:45.112Z,99.90
2019-03-18T10:10:14.488Z,99.90
2019-03-18T10:12:42.896Z,99.90
2019-03-18T10:15:16.079Z,99.90
2019-03-18T10:17:44.521Z,99.90
2019-03-18T10:20:13.576Z,99.90
2019-03-18T10:22:41.989Z,99.90
2019-03-18T10:25:10.505Z,99.90
2019-03-18T10:27:39.181Z,99.90
2019-03-18T10:30:12.716Z,99.90
2019-03-18T10:32:41.468Z,99.90
2019-03-18T10:35:10.272Z,99.90
2019-03-18T10:37:38.744Z,99.90
2019-03-18T10:40:12.036Z,99.90
2019-03-18T10:42:40.739Z,99.90
2019-03-18T10:45:10.927Z,99.90
2019-03-18T10:47:39.368Z,99.90
2019-03-18T10:50:10.885Z,99.90
2019-03-18T10:52:39.317Z,99.90
2019-03-18T10:55:09.809Z,99.90
2019-03-18T10:57:38.262Z,99.90
2019-03-18T11:00:13.027Z,99.90
2019-03-18T11:02:41.442Z,99.90
2019-03-18T11:05:10.599Z,99.90
2019-03-18T11:07:39.095Z,99.90
2019-03-18T11:10:12.934Z,99.90
2019-03-18T11:12:41.420Z,99.90
2019-03-18T11:15:19.455Z,99.90
2019-03-18T11:17:47.872Z,99.90
2019-03-18T11:20:17.156Z,99.90
2019-03-18T11:22:46.031Z,99.90
2019-03-18T11:25:15.493Z,99.90
2019-03-18T11:27:44.219Z,99.90
2019-03-18T11:30:14.072Z,99.90
2019-03-18T11:32:42.826Z,99.90
2019-03-18T11:35:11.333Z,99.90
2019-03-18T11:37:40.186Z,99.90
2019-03-18T11:40:11.660Z,99.90
2019-03-18T11:42:40.089Z,99.90
2019-03-18T11:45:11.690Z,99.90
2019-03-18T11:47:40.201Z,99.90
2019-03-18T11:50:14.385Z,99.90
2019-03-18T11:52:43.160Z,99.90
2019-03-18T11:55:14.365Z,99.90
2019-03-18T11:57:42.844Z,99.90
2019-03-18T12:00:19.458Z,99.90
2019-03-18T12:02:47.879Z,99.90
2019-03-18T12:05:21.850Z,99.90
2019-03-18T12:07:50.305Z,99.90
2019-03-18T12:10:19.772Z,99.90
2019-03-18T12:12:48.278Z,99.90
2019-03-18T12:15:21.397Z,99.90
2019-03-18T12:17:49.044Z,99.90
2019-03-18T12:20:24.522Z,99.90
2019-03-18T12:22:47.975Z,99.90
2019-03-18T12:25:16.400Z,99.90
2019-03-18T12:27:45.148Z,99.90
2019-03-18T12:30:23.136Z,99.90
2019-03-18T12:32:51.578Z,99.90
2019-03-18T12:35:20.617Z,99.90
2019-03-18T12:37:49.197Z,99.90
2019-03-18T12:40:17.922Z,99.90
2019-03-18T12:42:46.694Z,99.90
2019-03-18T12:45:18.934Z,99.90
2019-03-18T12:47:47.842Z,99.90
2019-03-18T12:50:38.593Z,99.90
2019-03-18T12:52:51.605Z,99.90
2019-03-18T12:55:20.248Z,99.90
2019-03-18T12:57:49.242Z,99.90
2019-03-18T13:00:20.755Z,99.90
2019-03-18T13:02:49.613Z,99.90
2019-03-18T13:05:18.171Z,99.90
2019-03-18T13:07:46.782Z,99.90
2019-03-18T13:10:21.411Z,99.90
2019-03-18T13:12:49.552Z,99.90
2019-03-18T13:15:19.371Z,99.90
2019-03-18T13:17:47.882Z,99.90
2019-03-18T13:20:17.366Z,99.80
2019-03-18T13:22:45.862Z,97.40
2019-03-18T13:25:14.716Z,95.80
2019-03-18T13:27:43.156Z,98.10
2019-03-18T13:30:16.469Z,99.70
2019-03-18T13:32:44.996Z,99.90
2019-03-18T13:35:14.376Z,99.90
2019-03-18T13:37:43.164Z,99.90
2019-03-18T13:40:13.273Z,99.90
2019-03-18T13:42:41.711Z,99.90
2019-03-18T13:45:15.368Z,99.90
2019-03-18T13:47:43.911Z,99.90
2019-03-18T13:50:14.837Z,99.90
2019-03-18T13:52:43.794Z,99.90
2019-03-18T13:55:12.566Z,97.10
2019-03-18T13:57:41.096Z,94.60
2019-03-18T14:00:17.528Z,91.80
2019-03-18T14:02:45.955Z,90.30
2019-03-18T14:05:14.473Z,83.00
2019-03-18T14:07:43.292Z,77.20
2019-03-18T14:10:14.411Z,73.60
2019-03-18T14:12:43.195Z,72.80
2019-03-18T14:15:14.217Z,74.30
2019-03-18T14:17:42.647Z,71.90
2019-03-18T14:20:16.136Z,72.20
2019-03-18T14:22:44.574Z,74.00
2019-03-18T14:25:13.265Z,76.50
2019-03-18T14:27:41.693Z,80.70
2019-03-18T14:30:15.128Z,79.80
2019-03-18T14:32:43.591Z,79.50
2019-03-18T14:35:12.418Z,80.90
2019-03-18T14:37:40.844Z,81.80
2019-03-18T14:40:20.292Z,82.60
2019-03-18T14:42:48.778Z,79.50
2019-03-18T14:45:18.975Z,80.30
2019-03-18T14:47:47.785Z,79.60
2019-03-18T14:50:17.248Z,81.40
2019-03-18T14:52:45.858Z,70.00
2019-03-18T14:55:15.419Z,70.10
2019-03-18T14:57:44.141Z,66.30
2019-03-18T15:00:22.665Z,64.10
2019-03-18T15:02:51.244Z,64.60
2019-03-18T15:05:19.822Z,64.80
2019-03-18T15:07:48.283Z,59.80
2019-03-18T15:10:19.306Z,54.40
2019-03-18T15:12:47.750Z,58.20
2019-03-18T15:15:17.363Z,56.10
2019-03-18T15:17:45.872Z,55.90
2019-03-18T15:20:20.521Z,53.50
2019-03-18T15:22:49.224Z,51.70
2019-03-18T15:25:20.755Z,51.00
2019-03-18T15:27:49.299Z,51.10
2019-03-18T15:30:19.836Z,52.70
2019-03-18T15:32:48.353Z,53.80
2019-03-18T15:35:18.084Z,57.00
2019-03-18T15:37:46.887Z,53.80
2019-03-18T15:40:17.337Z,55.50
2019-03-18T15:42:45.774Z,57.50
2019-03-18T15:45:23.871Z,63.70
2019-03-18T15:47:52.378Z,67.20
2019-03-18T15:50:25.669Z,69.80
2019-03-18T15:52:54.233Z,65.30
2019-03-18T15:55:24.360Z,66.80
2019-03-18T15:57:53.231Z,69.20
2019-03-18T16:00:26.244Z,74.30
2019-03-18T16:02:55.064Z,78.20
2019-03-18T16:05:23.572Z,80.20
2019-03-18T16:07:52.046Z,83.20
2019-03-18T16:10:21.147Z,84.30
2019-03-18T16:12:49.583Z,88.30
2019-03-18T16:15:18.583Z,90.70
2019-03-18T16:17:47.161Z,91.50
2019-03-18T16:20:26.447Z,93.60
2019-03-18T16:22:54.903Z,94.10
2019-03-18T16:25:23.336Z,95.00
2019-03-18T16:27:51.757Z,96.40
2019-03-18T16:30:23.054Z,98.20
2019-03-18T16:32:53.033Z,99.80
2019-03-18T16:35:21.441Z,99.90
2019-03-18T16:37:50.179Z,99.90
2019-03-18T16:40:23.975Z,99.90
2019-03-18T16:42:52.407Z,99.90
2019-03-18T16:45:55.239Z,99.90
2019-03-18T16:48:23.685Z,99.90
2019-03-18T16:50:52.122Z,99.90
2019-03-18T16:53:21.107Z,99.90
2019-03-18T16:55:49.715Z,99.90
2019-03-18T16:58:18.469Z,99.90
2019-03-18T17:00:47.253Z,99.90
2019-03-18T17:03:15.680Z,99.90
2019-03-18T17:05:44.108Z,99.90
2019-03-18T17:08:12.572Z,99.90
2019-03-18T17:10:41.093Z,99.90
2019-03-18T17:13:09.515Z,99.90
2019-03-18T17:15:38.240Z,99.90
2019-03-18T17:18:07.030Z,99.90
2019-03-18T17:20:35.464Z,99.90
2019-03-18T17:23:04.208Z,99.90
2019-03-18T17:25:33.998Z,99.90
2019-03-18T17:28:02.726Z,99.90
2019-03-18T17:30:31.354Z,99.90
2019-03-18T17:32:59.951Z,99.90
2019-03-18T17:35:28.635Z,99.90
2019-03-18T17:37:57.082Z,99.90
2019-03-18T17:40:25.536Z,99.90
2019-03-18T17:42:54.070Z,99.90
2019-03-18T17:45:22.512Z,99.90
2019-03-18T17:47:51.257Z,99.90
2019-03-18T17:50:27.305Z,99.90
2019-03-18T17:53:02.855Z,99.90
2019-03-18T17:55:26.445Z,99.90
2019-03-18T17:57:55.181Z,99.90
2019-03-18T18:00:41.191Z,99.90
2019-03-18T18:03:09.918Z,99.90
2019-03-18T18:05:38.355Z,99.90
2019-03-18T18:08:06.791Z,99.90
2019-03-18T18:10:35.545Z,99.90
2019-03-18T18:13:04.333Z,99.90
2019-03-18T18:15:34.714Z,99.90
2019-03-18T18:18:03.159Z,99.90
2019-03-18T18:20:31.568Z,99.90
2019-03-18T18:23:00.316Z,99.90
2019-03-18T18:25:28.743Z,99.90
2019-03-18T18:27:57.157Z,99.90
2019-03-18T18:30:25.585Z,99.90
2019-03-18T18:32:54.019Z,99.90
2019-03-18T18:35:22.432Z,99.90
2019-03-18T18:37:50.857Z,99.90
2019-03-18T18:40:25.224Z,99.90
2019-03-18T18:42:53.748Z,99.90
2019-03-18T18:45:22.198Z,99.90
2019-03-18T18:47:50.616Z,99.90
2019-03-18T18:50:19.541Z,99.90
2019-03-18T18:52:48.342Z,99.90
2019-03-18T18:55:16.755Z,99.90
2019-03-18T18:57:45.260Z,99.90
2019-03-18T19:00:19.156Z,99.90
2019-03-18T19:02:47.622Z,99.90
2019-03-18T19:05:16.895Z,99.90
2019-03-18T19:07:45.448Z,99.90
2019-03-18T19:10:17.835Z,99.90
2019-03-18T19:12:46.280Z,99.90
2019-03-18T19:15:22.513Z,99.90
2019-03-18T19:17:51.021Z,99.90
2019-03-18T19:20:19.460Z,99.90
2019-03-18T19:22:47.897Z,99.90
2019-03-18T19:25:19.518Z,99.90
2019-03-18T19:27:48.269Z,99.90
2019-03-18T19:30:21.043Z,99.90
2019-03-18T19:32:49.614Z,99.90
2019-03-18T19:35:18.156Z,99.90
2019-03-18T19:37:46.655Z,99.90
2019-03-18T19:40:18.416Z,99.90
2019-03-18T19:42:46.843Z,99.90
2019-03-18T19:45:15.322Z,99.90
2019-03-18T19:47:43.856Z,99.90
2019-03-18T19:50:18.163Z,99.90
2019-03-18T19:52:46.956Z,99.90
2019-03-18T19:55:15.452Z,99.90
2019-03-18T19:57:43.947Z,99.90
2019-03-18T20:00:15.285Z,99.90
2019-03-18T20:02:43.807Z,99.90
2019-03-18T20:05:15.708Z,99.90
2019-03-18T20:07:42.417Z,99.90
2019-03-18T20:10:15.680Z,99.90
2019-03-18T20:12:44.204Z,99.90
2019-03-18T20:15:19.653Z,99.90
2019-03-18T20:17:48.414Z,99.90
2019-03-18T20:20:21.466Z,99.90
2019-03-18T20:22:49.906Z,99.90
2019-03-18T20:25:18.437Z,99.90
2019-03-18T20:27:46.886Z,99.90
2019-03-18T20:30:19.212Z,99.90
2019-03-18T20:32:47.646Z,99.90
2019-03-18T20:35:17.566Z,99.90
2019-03-18T20:37:46.053Z,99.90
2019-03-18T20:40:15.538Z,99.90
2019-03-18T20:42:44.119Z,99.90
2019-03-18T20:45:17.852Z,99.90
2019-03-18T20:47:46.357Z,99.90
2019-03-18T20:50:19.451Z,99.90
2019-03-18T20:52:47.891Z,99.90
2019-03-18T20:55:17.069Z,99.90
2019-03-18T20:57:45.611Z,99.90
2019-03-18T21:00:22.968Z,99.90
2019-03-18T21:02:51.541Z,99.90
2019-03-18T21:05:20.052Z,99.90
2019-03-18T21:07:48.511Z,99.90
2019-03-18T21:10:20.777Z,99.90
2019-03-18T21:12:49.222Z,99.90
2019-03-18T21:15:18.617Z,99.90
2019-03-18T21:17:47.079Z,99.90
2019-03-18T21:20:20.632Z,99.90
2019-03-18T21:22:49.057Z,99.90
2019-03-18T21:25:17.536Z,99.90
2019-03-18T21:27:46.246Z,99.90
2019-03-18T21:30:19.147Z,99.90
2019-03-18T21:32:47.622Z,99.90
2019-03-18T21:35:16.324Z,99.90
2019-03-18T21:37:45.094Z,99.90
2019-03-18T21:40:17.531Z,99.90
2019-03-18T21:42:46.035Z,99.90
2019-03-18T21:45:23.482Z,99.90
2019-03-18T21:47:51.973Z,99.90
2019-03-18T21:50:20.694Z,99.90
2019-03-18T21:52:49.124Z,99.90
2019-03-18T21:55:17.935Z,99.90
2019-03-18T21:57:46.446Z,99.90
2019-03-18T22:00:19.745Z,99.90
2019-03-18T22:02:48.261Z,99.90
2019-03-18T22:05:17.001Z,99.90
2019-03-18T22:07:45.816Z,99.90
2019-03-18T22:10:18.823Z,99.90
2019-03-18T22:12:47.965Z,99.90
2019-03-18T22:15:16.982Z,99.90
2019-03-18T22:17:45.470Z,99.90
2019-03-18T22:20:15.918Z,99.90
2019-03-18T22:22:44.359Z,99.90
2019-03-18T22:25:15.692Z,99.90
2019-03-18T22:27:44.401Z,99.90
2019-03-18T22:30:14.477Z,99.90
2019-03-18T22:32:43.210Z,99.90
2019-03-18T22:35:12.109Z,99.90
2019-03-18T22:37:42.467Z,99.90
2019-03-18T22:40:13.264Z,99.90
2019-03-18T22:42:41.816Z,99.90
2019-03-18T22:45:12.682Z,99.90
2019-03-18T22:47:41.481Z,99.90
2019-03-18T22:50:11.903Z,99.90
2019-03-18T22:52:40.331Z,99.90
2019-03-18T22:55:13.684Z,99.90
2019-03-18T22:57:42.491Z,99.90
2019-03-18T23:00:20.587Z,99.90
2019-03-18T23:02:49.983Z,99.90
2019-03-18T23:05:18.754Z,99.90
2019-03-18T23:07:47.453Z,99.90
2019-03-18T23:10:15.884Z,99.90
2019-03-18T23:12:44.642Z,99.90
2019-03-18T23:15:13.842Z,99.90
2019-03-18T23:17:42.449Z,99.90
2019-03-18T23:20:11.000Z,99.90
2019-03-18T23:22:39.773Z,99.90
2019-03-18T23:25:08.491Z,99.90
2019-03-18T23:27:37.007Z,99.90
2019-03-18T23:30:13.440Z,99.90
2019-03-18T23:32:41.861Z,99.90
2019-03-18T23:35:10.639Z,99.90
2019-03-18T23:37:39.067Z,99.90
2019-03-18T23:40:14.586Z,99.90
2019-03-18T23:42:43.001Z,99.90
2019-03-18T23:45:12.045Z,99.90
2019-03-18T23:47:40.456Z,99.90
2019-03-18T23:50:11.795Z,99.90
2019-03-18T23:52:40.505Z,99.90
2019-03-18T23:55:18.339Z,99.90
2019-03-18T23:57:39.962Z,99.90
